Time,TemperatureF,DewpointF,PressureIn,WindDirection,WindDirectionDegrees,WindSpeedMPH,WindSpeedGustMPH,Humidity,HourlyPrecipIn,Conditions,Clouds,dailyrainin,SolarRadiationWatts/m^2,SoftwareType,DateUTC
2013-03-21 00:02:00,26.0,21.0,-100.00,SW,231,8.0,22.0,82,0.00,,,0.19,1.000000,,2013-03-21 07:02:00,
2013-03-21 00:12:00,26.0,21.0,-100.00,SW,231,8.0,22.0,82,0.00,,,0.19,1.000000,,2013-03-21 07:12:00,
2013-03-21 00:21:00,26.0,21.0,-100.00,SW,231,8.0,22.0,82,0.00,,,0.19,1.000000,,2013-03-21 07:21:00,
2013-03-21 00:52:00,26.0,19.0,-100.00,SW,225,9.0,25.0,73,0.00,,,0.18,1.000000,,2013-03-21 07:52:00,
2013-03-21 01:02:00,26.0,19.0,-100.00,SW,225,9.0,25.0,73,0.00,,,0.18,1.000000,,2013-03-21 08:02:00,
2013-03-21 01:12:00,26.0,19.0,-100.00,SW,225,9.0,25.0,73,0.00,,,0.18,1.000000,,2013-03-21 08:12:00,
2013-03-21 01:22:00,26.0,19.0,-100.00,SW,225,9.0,25.0,73,0.00,,,0.18,1.000000,,2013-03-21 08:22:00,
2013-03-21 01:52:00,25.0,16.0,-100.00,SSW,213,7.0,15.0,69,0.00,,,0.18,1.000000,,2013-03-21 08:52:00,
2013-03-21 02:02:00,25.0,16.0,-100.00,SSW,213,7.0,15.0,69,0.00,,,0.18,1.000000,,2013-03-21 09:02:00,
2013-03-21 02:11:00,25.0,16.0,-100.00,SSW,213,7.0,15.0,69,0.00,,,0.18,1.000000,,2013-03-21 09:11:00,
2013-03-21 02:21:00,25.0,16.0,-100.00,SSW,213,7.0,15.0,69,0.00,,,0.18,1.000000,,2013-03-21 09:21:00,
2013-03-21 02:53:00,24.0,18.0,-100.00,SSW,208,5.0,13.0,78,0.00,,,0.18,1.000000,,2013-03-21 09:53:00,
2013-03-21 03:02:00,24.0,18.0,-100.00,SSW,208,5.0,13.0,78,0.00,,,0.18,1.000000,,2013-03-21 10:02:00,
2013-03-21 03:12:00,24.0,18.0,-100.00,SSW,208,5.0,13.0,78,0.00,,,0.18,1.000000,,2013-03-21 10:12:00,
2013-03-21 03:22:00,24.0,18.0,-100.00,SSW,208,5.0,13.0,78,0.00,,,0.18,1.000000,,2013-03-21 10:22:00,
2013-03-21 03:53:00,23.0,16.0,-100.00,SSW,203,7.0,12.0,74,0.00,,,0.16,1.000000,,2013-03-21 10:53:00,
2013-03-21 04:02:00,23.0,16.0,-100.00,SSW,203,7.0,12.0,74,0.00,,,0.16,1.000000,,2013-03-21 11:02:00,
2013-03-21 04:12:00,23.0,16.0,-100.00,SSW,203,7.0,12.0,74,0.00,,,0.16,1.000000,,2013-03-21 11:12:00,
2013-03-21 04:22:00,23.0,16.0,-100.00,SSW,203,7.0,12.0,74,0.00,,,0.16,1.000000,,2013-03-21 11:22:00,
2013-03-21 04:53:00,22.0,16.0,-100.00,SW,225,8.0,14.0,79,0.00,,,0.16,1.000000,,2013-03-21 11:53:00,
2013-03-21 05:02:00,22.0,16.0,-100.00,SW,225,8.0,14.0,79,0.00,,,0.16,1.000000,,2013-03-21 12:02:00,
2013-03-21 05:12:00,22.0,16.0,-100.00,SW,225,8.0,14.0,79,0.00,,,0.16,1.000000,,2013-03-21 12:12:00,
2013-03-21 05:22:00,22.0,16.0,-100.00,SW,225,8.0,14.0,79,0.00,,,0.16,1.000000,,2013-03-21 12:22:00,
2013-03-21 05:53:00,22.0,15.0,-100.00,SW,226,7.0,18.0,75,0.00,,,0.16,1.000000,,2013-03-21 12:53:00,
2013-03-21 06:02:00,22.0,15.0,-100.00,SW,226,7.0,18.0,75,0.00,,,0.16,1.000000,,2013-03-21 13:02:00,
2013-03-21 06:12:00,22.0,15.0,-100.00,SW,226,7.0,18.0,75,0.00,,,0.16,1.000000,,2013-03-21 13:12:00,
2013-03-21 06:22:00,22.0,15.0,-100.00,SW,226,7.0,18.0,75,0.00,,,0.16,1.000000,,2013-03-21 13:22:00,
2013-03-21 06:42:00,22.0,18.0,-100.00,SSW,206,9.0,18.0,83,0.00,,,0.16,1.000000,,2013-03-21 13:42:00,
2013-03-21 06:52:00,22.0,18.0,-100.00,SSW,206,9.0,18.0,83,0.00,,,0.16,1.000000,,2013-03-21 13:52:00,
2013-03-21 07:02:00,22.0,18.0,-100.00,SSW,206,9.0,18.0,83,0.00,,,0.16,1.000000,,2013-03-21 14:02:00,
2013-03-21 07:11:00,22.0,18.0,-100.00,SSW,206,9.0,18.0,83,0.00,,,0.16,1.000000,,2013-03-21 14:11:00,
2013-03-21 07:21:00,22.0,18.0,-100.00,SSW,206,9.0,18.0,83,0.00,,,0.16,1.000000,,2013-03-21 14:21:00,
2013-03-21 07:52:00,22.0,18.0,-100.00,South,180,6.0,23.0,86,0.00,,,0.16,5.000000,,2013-03-21 14:52:00,
2013-03-21 08:03:00,22.0,18.0,-100.00,South,180,6.0,23.0,86,0.00,,,0.16,5.000000,,2013-03-21 15:03:00,
2013-03-21 08:12:00,22.0,18.0,-100.00,South,180,6.0,23.0,86,0.00,,,0.16,5.000000,,2013-03-21 15:12:00,
2013-03-21 08:22:00,22.0,18.0,-100.00,South,180,6.0,23.0,86,0.00,,,0.16,5.000000,,2013-03-21 15:22:00,
2013-03-21 08:43:00,24.0,20.0,-100.00,South,179,7.0,12.0,85,0.00,,,0.16,89.000000,,2013-03-21 15:43:00,
2013-03-21 08:53:00,24.0,20.0,-100.00,South,179,7.0,12.0,85,0.00,,,0.16,89.000000,,2013-03-21 15:53:00,
2013-03-21 09:03:00,24.0,20.0,-100.00,South,179,7.0,12.0,85,0.00,,,0.16,89.000000,,2013-03-21 16:03:00,
2013-03-21 09:12:00,24.0,20.0,-100.00,South,179,7.0,12.0,85,0.00,,,0.16,89.000000,,2013-03-21 16:12:00,
2013-03-21 09:22:00,24.0,20.0,-100.00,South,179,7.0,12.0,85,0.00,,,0.16,89.000000,,2013-03-21 16:22:00,
2013-03-21 09:42:00,25.0,19.0,-100.00,South,189,8.0,13.0,79,0.00,,,0.15,203.000000,,2013-03-21 16:42:00,
2013-03-21 09:53:00,25.0,19.0,-100.00,South,189,8.0,13.0,79,0.00,,,0.15,203.000000,,2013-03-21 16:53:00,
2013-03-21 10:02:00,25.0,19.0,-100.00,South,189,8.0,13.0,79,0.00,,,0.15,203.000000,,2013-03-21 17:02:00,
2013-03-21 10:12:00,25.0,19.0,-100.00,South,189,8.0,13.0,79,0.00,,,0.15,203.000000,,2013-03-21 17:12:00,
2013-03-21 10:22:00,25.0,19.0,-100.00,South,189,8.0,13.0,79,0.00,,,0.15,203.000000,,2013-03-21 17:22:00,
2013-03-21 10:53:00,26.0,21.0,-100.00,South,182,7.0,12.0,81,0.00,,,0.09,174.000000,,2013-03-21 17:53:00,
2013-03-21 11:02:00,26.0,21.0,-100.00,South,182,7.0,12.0,81,0.00,,,0.09,174.000000,,2013-03-21 18:02:00,
2013-03-21 11:12:00,26.0,21.0,-100.00,South,182,7.0,12.0,81,0.00,,,0.09,174.000000,,2013-03-21 18:12:00,
2013-03-21 11:22:00,26.0,21.0,-100.00,South,182,7.0,12.0,81,0.00,,,0.09,174.000000,,2013-03-21 18:22:00,
2013-03-21 11:43:00,31.0,23.0,-100.00,SW,228,9.0,18.0,71,0.01,,,0.04,374.000000,,2013-03-21 18:43:00,
2013-03-21 11:52:00,31.0,23.0,-100.00,SW,228,9.0,18.0,71,0.01,,,0.04,374.000000,,2013-03-21 18:52:00,
2013-03-21 12:02:00,31.0,23.0,-100.00,SW,228,9.0,18.0,71,0.01,,,0.04,374.000000,,2013-03-21 19:02:00,
2013-03-21 12:12:00,31.0,23.0,-100.00,SW,228,9.0,18.0,71,0.01,,,0.04,374.000000,,2013-03-21 19:12:00,
2013-03-21 12:21:00,31.0,23.0,-100.00,SW,228,9.0,18.0,71,0.01,,,0.04,374.000000,,2013-03-21 19:21:00,
2013-03-21 12:53:00,34.0,23.0,-100.00,SW,231,11.0,20.0,64,0.00,,,0.01,649.000000,,2013-03-21 19:53:00,
2013-03-21 13:02:00,34.0,23.0,-100.00,SW,231,11.0,20.0,64,0.00,,,0.01,649.000000,,2013-03-21 20:02:00,
2013-03-21 13:12:00,34.0,23.0,-100.00,SW,231,11.0,20.0,64,0.00,,,0.01,649.000000,,2013-03-21 20:12:00,
2013-03-21 13:22:00,34.0,23.0,-100.00,SW,231,11.0,20.0,64,0.00,,,0.01,649.000000,,2013-03-21 20:22:00,
2013-03-21 13:53:00,36.0,25.0,-100.00,SW,228,10.0,21.0,64,0.00,,,0.01,591.000000,,2013-03-21 20:53:00,
2013-03-21 14:02:00,36.0,25.0,-100.00,SW,228,10.0,21.0,64,0.00,,,0.01,591.000000,,2013-03-21 21:02:00,
2013-03-21 14:12:00,36.0,25.0,-100.00,SW,228,10.0,21.0,64,0.00,,,0.01,591.000000,,2013-03-21 21:12:00,
2013-03-21 14:22:00,36.0,25.0,-100.00,SW,228,10.0,21.0,64,0.00,,,0.01,591.000000,,2013-03-21 21:22:00,
2013-03-21 14:43:00,34.0,23.0,-100.00,SW,235,8.0,19.0,64,0.00,,,0.01,573.000000,,2013-03-21 21:43:00,
2013-03-21 14:53:00,34.0,23.0,-100.00,SW,235,8.0,19.0,64,0.00,,,0.01,573.000000,,2013-03-21 21:53:00,
2013-03-21 15:02:00,34.0,23.0,-100.00,SW,235,8.0,19.0,64,0.00,,,0.01,573.000000,,2013-03-21 22:02:00,
2013-03-21 15:12:00,34.0,23.0,-100.00,SW,235,8.0,19.0,64,0.00,,,0.01,573.000000,,2013-03-21 22:12:00,
2013-03-21 15:22:00,34.0,23.0,-100.00,SW,235,8.0,19.0,64,0.00,,,0.01,573.000000,,2013-03-21 22:22:00,
2013-03-21 15:52:00,32.0,20.0,-100.00,WSW,239,8.0,20.0,61,0.00,,,0.01,185.000000,,2013-03-21 22:52:00,
2013-03-21 16:02:00,32.0,20.0,-100.00,WSW,239,8.0,20.0,61,0.00,,,0.01,185.000000,,2013-03-21 23:02:00,
2013-03-21 16:12:00,32.0,20.0,-100.00,WSW,239,8.0,20.0,61,0.00,,,0.01,185.000000,,2013-03-21 23:12:00,
2013-03-21 16:21:00,32.0,20.0,-100.00,WSW,239,8.0,20.0,61,0.00,,,0.01,185.000000,,2013-03-21 23:21:00,
2013-03-21 16:53:00,35.0,20.0,-100.00,WSW,240,8.0,19.0,54,0.00,,,0.01,429.000000,,2013-03-21 23:53:00,
2013-03-21 17:02:00,35.0,20.0,-100.00,WSW,240,8.0,19.0,54,0.00,,,0.01,429.000000,,2013-03-22 00:02:00,
2013-03-21 17:12:00,35.0,20.0,-100.00,WSW,240,8.0,19.0,54,0.00,,,0.01,429.000000,,2013-03-22 00:12:00,
2013-03-21 17:22:00,35.0,20.0,-100.00,WSW,240,8.0,19.0,54,0.00,,,0.01,429.000000,,2013-03-22 00:22:00,
2013-03-21 17:42:00,35.0,21.0,-100.00,WSW,240,6.0,17.0,57,0.00,,,0.01,345.000000,,2013-03-22 00:42:00,
2013-03-21 17:52:00,35.0,21.0,-100.00,WSW,240,6.0,17.0,57,0.00,,,0.01,345.000000,,2013-03-22 00:52:00,
2013-03-21 18:02:00,35.0,21.0,-100.00,WSW,240,6.0,17.0,57,0.00,,,0.01,345.000000,,2013-03-22 01:02:00,
2013-03-21 18:12:00,35.0,21.0,-100.00,WSW,240,6.0,17.0,57,0.00,,,0.01,345.000000,,2013-03-22 01:12:00,
2013-03-21 18:21:00,35.0,21.0,-100.00,WSW,240,6.0,17.0,57,0.00,,,0.01,345.000000,,2013-03-22 01:21:00,
2013-03-21 18:53:00,29.0,21.0,-100.00,SW,236,11.0,22.0,71,0.00,,,0.01,91.000000,,2013-03-22 01:53:00,
2013-03-21 19:02:00,29.0,21.0,-100.00,SW,236,11.0,22.0,71,0.00,,,0.01,91.000000,,2013-03-22 02:02:00,
2013-03-21 19:12:00,29.0,21.0,-100.00,SW,236,11.0,22.0,71,0.00,,,0.01,91.000000,,2013-03-22 02:12:00,
2013-03-21 19:22:00,29.0,21.0,-100.00,SW,236,11.0,22.0,71,0.00,,,0.01,91.000000,,2013-03-22 02:22:00,
2013-03-21 19:52:00,27.0,19.0,-100.00,SW,236,10.0,23.0,71,0.00,,,0.01,19.000000,,2013-03-22 02:52:00,
2013-03-21 20:02:00,27.0,19.0,-100.00,SW,236,10.0,23.0,71,0.00,,,0.01,19.000000,,2013-03-22 03:02:00,
2013-03-21 20:12:00,27.0,19.0,-100.00,SW,236,10.0,23.0,71,0.00,,,0.01,19.000000,,2013-03-22 03:12:00,
2013-03-21 20:21:00,27.0,19.0,-100.00,SW,236,10.0,23.0,71,0.00,,,0.01,19.000000,,2013-03-22 03:21:00,
2013-03-21 20:43:00,27.0,20.0,-100.00,SW,223,11.0,21.0,73,0.00,,,0.01,1.000000,,2013-03-22 03:43:00,
2013-03-21 20:53:00,27.0,20.0,-100.00,SW,223,11.0,21.0,73,0.00,,,0.01,1.000000,,2013-03-22 03:53:00,
2013-03-21 21:03:00,27.0,20.0,-100.00,SW,223,11.0,21.0,73,0.00,,,0.01,1.000000,,2013-03-22 04:03:00,
2013-03-21 21:12:00,27.0,20.0,-100.00,SW,223,11.0,21.0,73,0.00,,,0.01,1.000000,,2013-03-22 04:12:00,
2013-03-21 21:22:00,27.0,20.0,-100.00,SW,223,11.0,21.0,73,0.00,,,0.01,1.000000,,2013-03-22 04:22:00,
2013-03-21 21:52:00,26.0,21.0,-100.00,SW,218,8.0,19.0,82,0.00,,,0.01,1.000000,,2013-03-22 04:52:00,
2013-03-21 22:02:00,26.0,21.0,-100.00,SW,218,8.0,19.0,82,0.00,,,0.01,1.000000,,2013-03-22 05:02:00,
2013-03-21 22:12:00,26.0,21.0,-100.00,SW,218,8.0,19.0,82,0.00,,,0.01,1.000000,,2013-03-22 05:12:00,
2013-03-21 22:22:00,26.0,21.0,-100.00,SW,218,8.0,19.0,82,0.00,,,0.01,1.000000,,2013-03-22 05:22:00,
2013-03-21 22:42:00,24.0,21.0,-100.00,SW,227,6.0,13.0,88,0.00,,,0.01,1.000000,,2013-03-22 05:42:00,
2013-03-21 22:52:00,24.0,21.0,-100.00,SW,227,6.0,13.0,88,0.00,,,0.01,1.000000,,2013-03-22 05:52:00,
2013-03-21 23:02:00,24.0,21.0,-100.00,SW,227,6.0,13.0,88,0.00,,,0.01,1.000000,,2013-03-22 06:02:00,
2013-03-21 23:12:00,24.0,21.0,-100.00,SW,227,6.0,13.0,88,0.00,,,0.01,1.000000,,2013-03-22 06:12:00,
2013-03-21 23:21:00,24.0,21.0,-100.00,SW,227,6.0,13.0,88,0.00,,,0.01,1.000000,,2013-03-22 06:21:00,
2013-03-21 23:52:00,23.0,19.0,-100.00,SW,227,6.0,16.0,84,0.00,,,-99.99,1.000000,,2013-03-22 06:52:00,